Terminal Aerodrome Forecast
Issued by NWS

Home | Current Version | Previous Version | Text Only | Print | Product List | Glossary On
Versions: 1 2 3 4 5 6 7 8 9 10 11 12 13 14 15 16 17 18
726
FTUS43 KGRR 230522
TAFBTL
TAF
KBTL 230522Z 2306/2406 21008KT P6SM -SHRA BKN070
     FM230800 20006KT 6SM -SHRA BR OVC045
     FM231400 21008KT 6SM BR VCTS OVC045CB
     FM240200 08004KT 6SM -SHRA BR OVC045=

USA.gov is the U.S. government's official web portal to all federal, state and local government web resources and services.